sensor_id;sensor_type;location;lat;lon;timestamp;P1;durP1;ratioP1;P2;durP2;ratioP2
63218;SDS011;49320;52.512;13.448;2022-07-23T00:01:30;4.75;;;3.10;;
63218;SDS011;49320;52.512;13.448;2022-07-23T00:03:57;3.47;;;3.05;;
63218;SDS011;49320;52.512;13.448;2022-07-23T00:06:25;4.68;;;2.97;;
63218;SDS011;49320;52.512;13.448;2022-07-23T00:08:52;7.53;;;5.95;;
63218;SDS011;49320;52.512;13.448;2022-07-23T00:11:19;6.30;;;5.13;;
63218;SDS011;49320;52.512;13.448;2022-07-23T00:13:48;5.72;;;3.95;;
63218;SDS011;49320;52.512;13.448;2022-07-23T00:16:15;4.28;;;3.70;;
63218;SDS011;49320;52.512;13.448;2022-07-23T00:18:42;4.18;;;3.25;;
63218;SDS011;49320;52.512;13.448;2022-07-23T00:21:08;4.38;;;3.30;;
63218;SDS011;49320;52.512;13.448;2022-07-23T00:23:35;4.18;;;3.28;;
63218;SDS011;49320;52.512;13.448;2022-07-23T00:26:02;3.22;;;2.92;;
63218;SDS011;49320;52.512;13.448;2022-07-23T00:28:30;3.58;;;3.22;;
63218;SDS011;49320;52.512;13.448;2022-07-23T00:30:57;3.92;;;2.92;;
63218;SDS011;49320;52.512;13.448;2022-07-23T00:33:23;3.92;;;3.22;;
63218;SDS011;49320;52.512;13.448;2022-07-23T00:35:50;4.07;;;3.10;;
63218;SDS011;49320;52.512;13.448;2022-07-23T00:38:17;3.28;;;2.78;;
63218;SDS011;49320;52.512;13.448;2022-07-23T00:40:44;3.97;;;3.38;;
63218;SDS011;49320;52.512;13.448;2022-07-23T00:43:11;4.95;;;3.33;;
63218;SDS011;49320;52.512;13.448;2022-07-23T00:45:37;4.13;;;3.05;;
63218;SDS011;49320;52.512;13.448;2022-07-23T00:48:04;4.10;;;2.88;;
63218;SDS011;49320;52.512;13.448;2022-07-23T00:50:31;3.15;;;2.85;;
63218;SDS011;49320;52.512;13.448;2022-07-23T00:52:59;4.18;;;2.85;;
63218;SDS011;49320;52.512;13.448;2022-07-23T00:55:25;3.60;;;3.03;;
63218;SDS011;49320;52.512;13.448;2022-07-23T00:57:53;3.30;;;3.00;;
63218;SDS011;49320;52.512;13.448;2022-07-23T01:00:21;3.30;;;2.80;;
63218;SDS011;49320;52.512;13.448;2022-07-23T01:02:48;3.75;;;2.88;;
63218;SDS011;49320;52.512;13.448;2022-07-23T01:05:15;5.45;;;3.08;;
63218;SDS011;49320;52.512;13.448;2022-07-23T01:07:43;5.00;;;3.50;;
63218;SDS011;49320;52.512;13.448;2022-07-23T01:10:11;3.63;;;2.97;;
63218;SDS011;49320;52.512;13.448;2022-07-23T01:12:58;5.43;;;3.05;;
63218;SDS011;49320;52.512;13.448;2022-07-23T01:15:32;3.35;;;2.92;;
63218;SDS011;49320;52.512;13.448;2022-07-23T01:18:03;3.38;;;3.05;;
63218;SDS011;49320;52.512;13.448;2022-07-23T01:20:31;4.82;;;3.45;;
63218;SDS011;49320;52.512;13.448;2022-07-23T01:22:59;4.20;;;3.58;;
63218;SDS011;49320;52.512;13.448;2022-07-23T01:25:25;4.20;;;3.17;;
63218;SDS011;49320;52.512;13.448;2022-07-23T01:27:53;5.03;;;3.10;;
63218;SDS011;49320;52.512;13.448;2022-07-23T01:30:20;3.05;;;2.75;;
63218;SDS011;49320;52.512;13.448;2022-07-23T01:32:47;4.88;;;3.13;;
63218;SDS011;49320;52.512;13.448;2022-07-23T01:35:14;3.88;;;2.90;;
63218;SDS011;49320;52.512;13.448;2022-07-23T01:37:41;3.65;;;3.35;;
63218;SDS011;49320;52.512;13.448;2022-07-23T01:40:08;3.90;;;3.38;;
63218;SDS011;49320;52.512;13.448;2022-07-23T01:42:35;4.45;;;3.05;;
63218;SDS011;49320;52.512;13.448;2022-07-23T01:45:03;3.75;;;3.03;;
63218;SDS011;49320;52.512;13.448;2022-07-23T01:47:31;5.78;;;3.28;;
63218;SDS011;49320;52.512;13.448;2022-07-23T01:49:58;3.28;;;2.92;;
63218;SDS011;49320;52.512;13.448;2022-07-23T01:52:25;4.72;;;3.60;;
63218;SDS011;49320;52.512;13.448;2022-07-23T01:54:52;5.00;;;3.67;;
63218;SDS011;49320;52.512;13.448;2022-07-23T01:57:18;3.72;;;3.22;;
63218;SDS011;49320;52.512;13.448;2022-07-23T01:59:45;3.70;;;3.25;;
63218;SDS011;49320;52.512;13.448;2022-07-23T02:02:12;5.40;;;3.58;;
63218;SDS011;49320;52.512;13.448;2022-07-23T02:04:40;4.80;;;3.17;;
63218;SDS011;49320;52.512;13.448;2022-07-23T02:07:07;4.63;;;3.42;;
63218;SDS011;49320;52.512;13.448;2022-07-23T02:09:34;3.47;;;3.17;;
63218;SDS011;49320;52.512;13.448;2022-07-23T02:12:01;3.70;;;3.17;;
63218;SDS011;49320;52.512;13.448;2022-07-23T02:14:29;3.58;;;3.28;;
63218;SDS011;49320;52.512;13.448;2022-07-23T02:16:57;3.50;;;3.03;;
63218;SDS011;49320;52.512;13.448;2022-07-23T02:19:24;4.30;;;3.17;;
63218;SDS011;49320;52.512;13.448;2022-07-23T02:21:52;3.70;;;3.35;;
63218;SDS011;49320;52.512;13.448;2022-07-23T02:24:20;3.97;;;3.05;;
63218;SDS011;49320;52.512;13.448;2022-07-23T02:26:47;3.90;;;3.50;;
63218;SDS011;49320;52.512;13.448;2022-07-23T02:29:14;6.40;;;3.67;;
63218;SDS011;49320;52.512;13.448;2022-07-23T02:31:41;3.17;;;2.88;;
63218;SDS011;49320;52.512;13.448;2022-07-23T02:34:08;4.95;;;3.72;;
63218;SDS011;49320;52.512;13.448;2022-07-23T02:36:38;4.10;;;3.20;;
63218;SDS011;49320;52.512;13.448;2022-07-23T02:39:06;3.28;;;2.88;;
63218;SDS011;49320;52.512;13.448;2022-07-23T02:41:33;5.57;;;3.17;;
63218;SDS011;49320;52.512;13.448;2022-07-23T02:44:00;3.38;;;2.78;;
63218;SDS011;49320;52.512;13.448;2022-07-23T02:46:27;3.20;;;2.88;;
63218;SDS011;49320;52.512;13.448;2022-07-23T02:48:54;3.55;;;2.90;;
63218;SDS011;49320;52.512;13.448;2022-07-23T02:51:21;4.45;;;3.00;;
63218;SDS011;49320;52.512;13.448;2022-07-23T02:53:48;4.65;;;3.05;;
63218;SDS011;49320;52.512;13.448;2022-07-23T02:56:15;4.20;;;2.72;;
63218;SDS011;49320;52.512;13.448;2022-07-23T02:58:42;4.72;;;3.00;;
63218;SDS011;49320;52.512;13.448;2022-07-23T03:01:09;4.32;;;3.03;;
63218;SDS011;49320;52.512;13.448;2022-07-23T03:03:36;3.95;;;3.03;;
63218;SDS011;49320;52.512;13.448;2022-07-23T03:06:03;5.10;;;3.47;;
63218;SDS011;49320;52.512;13.448;2022-07-23T03:08:29;4.03;;;3.63;;
63218;SDS011;49320;52.512;13.448;2022-07-23T03:10:57;3.85;;;3.42;;
63218;SDS011;49320;52.512;13.448;2022-07-23T03:13:24;3.97;;;3.45;;
63218;SDS011;49320;52.512;13.448;2022-07-23T03:15:51;5.60;;;3.42;;
63218;SDS011;49320;52.512;13.448;2022-07-23T03:18:17;4.10;;;3.70;;
63218;SDS011;49320;52.512;13.448;2022-07-23T03:20:44;6.43;;;3.40;;
63218;SDS011;49320;52.512;13.448;2022-07-23T03:23:11;4.50;;;3.13;;
63218;SDS011;49320;52.512;13.448;2022-07-23T03:25:38;3.50;;;3.13;;
63218;SDS011;49320;52.512;13.448;2022-07-23T03:28:05;3.40;;;3.10;;
63218;SDS011;49320;52.512;13.448;2022-07-23T03:30:32;3.72;;;3.03;;
63218;SDS011;49320;52.512;13.448;2022-07-23T03:32:59;3.75;;;3.20;;
63218;SDS011;49320;52.512;13.448;2022-07-23T03:35:26;5.65;;;3.30;;
63218;SDS011;49320;52.512;13.448;2022-07-23T03:37:53;3.70;;;3.30;;
63218;SDS011;49320;52.512;13.448;2022-07-23T03:40:20;5.20;;;3.20;;
63218;SDS011;49320;52.512;13.448;2022-07-23T03:42:47;3.22;;;2.92;;
63218;SDS011;49320;52.512;13.448;2022-07-23T03:45:13;5.13;;;3.20;;
63218;SDS011;49320;52.512;13.448;2022-07-23T03:47:40;4.38;;;3.20;;
63218;SDS011;49320;52.512;13.448;2022-07-23T03:50:07;4.68;;;2.90;;
63218;SDS011;49320;52.512;13.448;2022-07-23T03:52:35;4.50;;;2.90;;
63218;SDS011;49320;52.512;13.448;2022-07-23T03:55:02;3.65;;;2.80;;
63218;SDS011;49320;52.512;13.448;2022-07-23T03:57:30;3.67;;;2.85;;
63218;SDS011;49320;52.512;13.448;2022-07-23T03:59:57;3.25;;;2.45;;
63218;SDS011;49320;52.512;13.448;2022-07-23T04:02:24;3.33;;;2.40;;
63218;SDS011;49320;52.512;13.448;2022-07-23T04:04:51;4.05;;;2.60;;
63218;SDS011;49320;52.512;13.448;2022-07-23T04:07:18;4.72;;;2.42;;
63218;SDS011;49320;52.512;13.448;2022-07-23T04:09:45;4.35;;;2.78;;
63218;SDS011;49320;52.512;13.448;2022-07-23T04:12:12;2.72;;;2.35;;
63218;SDS011;49320;52.512;13.448;2022-07-23T04:14:39;3.25;;;2.50;;
63218;SDS011;49320;52.512;13.448;2022-07-23T04:17:08;5.15;;;2.20;;
63218;SDS011;49320;52.512;13.448;2022-07-23T04:19:35;3.13;;;2.25;;
63218;SDS011;49320;52.512;13.448;2022-07-23T04:22:06;4.10;;;2.22;;
63218;SDS011;49320;52.512;13.448;2022-07-23T04:24:34;3.03;;;2.03;;
63218;SDS011;49320;52.512;13.448;2022-07-23T04:27:01;3.33;;;2.10;;
63218;SDS011;49320;52.512;13.448;2022-07-23T04:29:30;2.58;;;1.88;;
63218;SDS011;49320;52.512;13.448;2022-07-23T04:31:57;3.47;;;1.73;;
63218;SDS011;49320;52.512;13.448;2022-07-23T04:34:24;4.88;;;2.25;;
63218;SDS011;49320;52.512;13.448;2022-07-23T04:36:52;2.47;;;1.70;;
63218;SDS011;49320;52.512;13.448;2022-07-23T04:39:20;3.67;;;2.13;;
63218;SDS011;49320;52.512;13.448;2022-07-23T04:41:47;3.50;;;1.80;;
63218;SDS011;49320;52.512;13.448;2022-07-23T04:44:14;4.05;;;1.77;;
63218;SDS011;49320;52.512;13.448;2022-07-23T04:46:41;3.78;;;2.10;;
63218;SDS011;49320;52.512;13.448;2022-07-23T04:49:08;3.10;;;1.70;;
63218;SDS011;49320;52.512;13.448;2022-07-23T04:51:35;2.75;;;1.83;;
63218;SDS011;49320;52.512;13.448;2022-07-23T04:54:02;3.95;;;1.73;;
63218;SDS011;49320;52.512;13.448;2022-07-23T04:56:29;2.67;;;1.65;;
63218;SDS011;49320;52.512;13.448;2022-07-23T04:58:56;3.10;;;1.80;;
63218;SDS011;49320;52.512;13.448;2022-07-23T05:01:23;2.13;;;1.70;;
63218;SDS011;49320;52.512;13.448;2022-07-23T05:03:50;3.20;;;1.80;;
63218;SDS011;49320;52.512;13.448;2022-07-23T05:06:18;5.30;;;2.03;;
63218;SDS011;49320;52.512;13.448;2022-07-23T05:08:45;3.42;;;1.95;;
63218;SDS011;49320;52.512;13.448;2022-07-23T05:11:11;3.50;;;1.70;;
63218;SDS011;49320;52.512;13.448;2022-07-23T05:13:38;2.25;;;1.60;;
63218;SDS011;49320;52.512;13.448;2022-07-23T05:16:05;4.00;;;1.98;;
63218;SDS011;49320;52.512;13.448;2022-07-23T05:18:32;2.63;;;1.38;;
63218;SDS011;49320;52.512;13.448;2022-07-23T05:20:59;3.05;;;1.70;;
63218;SDS011;49320;52.512;13.448;2022-07-23T05:23:27;2.97;;;1.25;;
63218;SDS011;49320;52.512;13.448;2022-07-23T05:25:54;2.47;;;1.35;;
63218;SDS011;49320;52.512;13.448;2022-07-23T05:28:21;2.20;;;1.40;;
63218;SDS011;49320;52.512;13.448;2022-07-23T05:30:48;1.48;;;1.17;;
63218;SDS011;49320;52.512;13.448;2022-07-23T05:33:17;2.13;;;1.30;;
63218;SDS011;49320;52.512;13.448;2022-07-23T05:35:45;2.47;;;1.48;;
63218;SDS011;49320;52.512;13.448;2022-07-23T05:38:12;1.45;;;1.30;;
63218;SDS011;49320;52.512;13.448;2022-07-23T05:40:39;2.78;;;1.70;;
63218;SDS011;49320;52.512;13.448;2022-07-23T05:43:06;3.70;;;1.80;;
63218;SDS011;49320;52.512;13.448;2022-07-23T05:45:33;2.92;;;1.85;;
63218;SDS011;49320;52.512;13.448;2022-07-23T05:48:00;2.38;;;1.70;;
63218;SDS011;49320;52.512;13.448;2022-07-23T05:50:27;2.92;;;1.70;;
63218;SDS011;49320;52.512;13.448;2022-07-23T05:52:54;3.50;;;1.60;;
63218;SDS011;49320;52.512;13.448;2022-07-23T05:55:21;3.47;;;1.63;;
63218;SDS011;49320;52.512;13.448;2022-07-23T05:57:47;4.20;;;2.25;;
63218;SDS011;49320;52.512;13.448;2022-07-23T06:00:14;4.47;;;1.60;;
63218;SDS011;49320;52.512;13.448;2022-07-23T06:02:41;3.25;;;1.67;;
63218;SDS011;49320;52.512;13.448;2022-07-23T06:05:08;3.58;;;1.98;;
63218;SDS011;49320;52.512;13.448;2022-07-23T06:07:35;2.65;;;1.83;;
63218;SDS011;49320;52.512;13.448;2022-07-23T06:10:02;2.38;;;1.90;;
63218;SDS011;49320;52.512;13.448;2022-07-23T06:12:30;3.47;;;1.92;;
63218;SDS011;49320;52.512;13.448;2022-07-23T06:14:57;4.15;;;1.83;;
63218;SDS011;49320;52.512;13.448;2022-07-23T06:17:24;3.17;;;1.58;;
63218;SDS011;49320;52.512;13.448;2022-07-23T06:19:52;4.75;;;1.85;;
63218;SDS011;49320;52.512;13.448;2022-07-23T06:22:20;2.33;;;1.95;;
63218;SDS011;49320;52.512;13.448;2022-07-23T06:24:47;3.70;;;1.60;;
63218;SDS011;49320;52.512;13.448;2022-07-23T06:27:15;2.63;;;1.90;;
63218;SDS011;49320;52.512;13.448;2022-07-23T06:29:51;2.63;;;1.63;;
63218;SDS011;49320;52.512;13.448;2022-07-23T06:32:18;2.88;;;1.67;;
63218;SDS011;49320;52.512;13.448;2022-07-23T06:34:44;3.20;;;1.60;;
63218;SDS011;49320;52.512;13.448;2022-07-23T06:37:14;2.55;;;1.50;;
63218;SDS011;49320;52.512;13.448;2022-07-23T06:39:42;2.28;;;1.48;;
63218;SDS011;49320;52.512;13.448;2022-07-23T06:42:10;4.30;;;2.38;;
63218;SDS011;49320;52.512;13.448;2022-07-23T06:44:38;3.60;;;2.10;;
63218;SDS011;49320;52.512;13.448;2022-07-23T06:47:05;2.63;;;1.90;;
63218;SDS011;49320;52.512;13.448;2022-07-23T06:49:32;3.05;;;2.00;;
63218;SDS011;49320;52.512;13.448;2022-07-23T06:51:58;2.70;;;1.85;;
63218;SDS011;49320;52.512;13.448;2022-07-23T06:54:25;3.53;;;2.15;;
63218;SDS011;49320;52.512;13.448;2022-07-23T06:56:52;4.18;;;2.00;;
63218;SDS011;49320;52.512;13.448;2022-07-23T06:59:19;2.75;;;1.70;;
63218;SDS011;49320;52.512;13.448;2022-07-23T07:01:46;3.80;;;2.15;;
63218;SDS011;49320;52.512;13.448;2022-07-23T07:04:12;3.47;;;2.20;;
63218;SDS011;49320;52.512;13.448;2022-07-23T07:06:39;2.75;;;1.60;;
63218;SDS011;49320;52.512;13.448;2022-07-23T07:09:07;3.53;;;2.03;;
63218;SDS011;49320;52.512;13.448;2022-07-23T07:11:33;2.72;;;1.88;;
63218;SDS011;49320;52.512;13.448;2022-07-23T07:14:01;3.90;;;2.17;;
63218;SDS011;49320;52.512;13.448;2022-07-23T07:16:27;2.63;;;1.83;;
63218;SDS011;49320;52.512;13.448;2022-07-23T07:18:58;3.03;;;1.90;;
63218;SDS011;49320;52.512;13.448;2022-07-23T07:21:25;3.40;;;2.20;;
63218;SDS011;49320;52.512;13.448;2022-07-23T07:23:52;3.80;;;2.30;;
63218;SDS011;49320;52.512;13.448;2022-07-23T07:26:19;4.47;;;2.38;;
63218;SDS011;49320;52.512;13.448;2022-07-23T07:28:46;2.90;;;2.20;;
63218;SDS011;49320;52.512;13.448;2022-07-23T07:31:13;4.50;;;2.58;;
63218;SDS011;49320;52.512;13.448;2022-07-23T07:33:40;4.15;;;2.60;;
63218;SDS011;49320;52.512;13.448;2022-07-23T07:36:08;3.95;;;2.50;;
63218;SDS011;49320;52.512;13.448;2022-07-23T07:38:35;3.67;;;2.70;;
63218;SDS011;49320;52.512;13.448;2022-07-23T07:41:02;2.92;;;2.17;;
63218;SDS011;49320;52.512;13.448;2022-07-23T07:43:29;4.80;;;2.40;;
63218;SDS011;49320;52.512;13.448;2022-07-23T07:45:56;5.03;;;2.30;;
63218;SDS011;49320;52.512;13.448;2022-07-23T07:48:22;4.20;;;2.53;;
63218;SDS011;49320;52.512;13.448;2022-07-23T07:50:49;4.28;;;2.60;;
63218;SDS011;49320;52.512;13.448;2022-07-23T07:53:16;3.30;;;2.10;;
63218;SDS011;49320;52.512;13.448;2022-07-23T07:55:44;3.60;;;2.63;;
63218;SDS011;49320;52.512;13.448;2022-07-23T07:58:17;2.97;;;2.13;;
63218;SDS011;49320;52.512;13.448;2022-07-23T08:00:44;3.85;;;2.60;;
63218;SDS011;49320;52.512;13.448;2022-07-23T08:03:11;3.55;;;2.40;;
63218;SDS011;49320;52.512;13.448;2022-07-23T08:05:38;3.25;;;2.20;;
63218;SDS011;49320;52.512;13.448;2022-07-23T08:08:06;3.40;;;1.83;;
63218;SDS011;49320;52.512;13.448;2022-07-23T08:10:33;4.93;;;2.13;;
63218;SDS011;49320;52.512;13.448;2022-07-23T08:12:59;4.15;;;2.30;;
63218;SDS011;49320;52.512;13.448;2022-07-23T08:15:27;4.28;;;2.30;;
63218;SDS011;49320;52.512;13.448;2022-07-23T08:17:56;4.35;;;2.33;;
63218;SDS011;49320;52.512;13.448;2022-07-23T08:20:24;3.83;;;2.60;;
63218;SDS011;49320;52.512;13.448;2022-07-23T08:22:58;5.80;;;2.35;;
63218;SDS011;49320;52.512;13.448;2022-07-23T08:25:31;4.38;;;2.45;;
63218;SDS011;49320;52.512;13.448;2022-07-23T08:28:05;3.15;;;1.98;;
63218;SDS011;49320;52.512;13.448;2022-07-23T08:30:34;2.88;;;1.85;;
63218;SDS011;49320;52.512;13.448;2022-07-23T08:33:07;4.03;;;2.03;;
63218;SDS011;49320;52.512;13.448;2022-07-23T08:36:00;3.45;;;1.75;;
63218;SDS011;49320;52.512;13.448;2022-07-23T08:38:30;2.85;;;1.90;;
63218;SDS011;49320;52.512;13.448;2022-07-23T08:40:58;3.42;;;1.70;;
63218;SDS011;49320;52.512;13.448;2022-07-23T08:43:27;2.88;;;1.88;;
63218;SDS011;49320;52.512;13.448;2022-07-23T08:45:57;4.15;;;1.85;;
63218;SDS011;49320;52.512;13.448;2022-07-23T08:48:30;2.28;;;1.63;;
63218;SDS011;49320;52.512;13.448;2022-07-23T08:51:05;2.85;;;1.50;;
63218;SDS011;49320;52.512;13.448;2022-07-23T08:53:34;5.00;;;2.30;;
63218;SDS011;49320;52.512;13.448;2022-07-23T08:56:05;2.60;;;1.80;;
63218;SDS011;49320;52.512;13.448;2022-07-23T08:58:35;3.38;;;2.05;;
63218;SDS011;49320;52.512;13.448;2022-07-23T09:01:02;2.60;;;1.98;;
63218;SDS011;49320;52.512;13.448;2022-07-23T09:03:31;4.47;;;2.05;;
63218;SDS011;49320;52.512;13.448;2022-07-23T09:06:01;2.95;;;2.10;;
63218;SDS011;49320;52.512;13.448;2022-07-23T09:11:05;5.30;;;2.22;;
63218;SDS011;49320;52.512;13.448;2022-07-23T09:13:41;2.70;;;1.60;;
63218;SDS011;49320;52.512;13.448;2022-07-23T09:21:34;5.20;;;1.85;;
63218;SDS011;49320;52.512;13.448;2022-07-23T09:24:06;3.15;;;1.85;;
63218;SDS011;49320;52.512;13.448;2022-07-23T09:29:20;3.78;;;2.05;;
63218;SDS011;49320;52.512;13.448;2022-07-23T09:31:52;2.80;;;1.83;;
63218;SDS011;49320;52.512;13.448;2022-07-23T09:36:58;3.90;;;1.90;;
63218;SDS011;49320;52.512;13.448;2022-07-23T09:39:46;2.55;;;1.75;;
63218;SDS011;49320;52.512;13.448;2022-07-23T09:42:19;3.42;;;1.90;;
63218;SDS011;49320;52.512;13.448;2022-07-23T09:44:55;2.63;;;1.92;;
63218;SDS011;49320;52.512;13.448;2022-07-23T09:47:28;2.85;;;1.92;;
63218;SDS011;49320;52.512;13.448;2022-07-23T09:50:02;4.27;;;2.30;;
63218;SDS011;49320;52.512;13.448;2022-07-23T09:52:36;3.75;;;2.15;;
63218;SDS011;49320;52.512;13.448;2022-07-23T09:55:13;3.65;;;2.35;;
63218;SDS011;49320;52.512;13.448;2022-07-23T09:57:44;4.30;;;2.47;;
63218;SDS011;49320;52.512;13.448;2022-07-23T10:00:22;5.15;;;2.03;;
63218;SDS011;49320;52.512;13.448;2022-07-23T10:02:50;4.88;;;2.50;;
63218;SDS011;49320;52.512;13.448;2022-07-23T10:05:19;2.50;;;2.13;;
63218;SDS011;49320;52.512;13.448;2022-07-23T10:07:46;3.00;;;2.10;;
63218;SDS011;49320;52.512;13.448;2022-07-23T10:10:18;3.20;;;1.80;;
63218;SDS011;49320;52.512;13.448;2022-07-23T10:12:50;4.47;;;2.70;;
63218;SDS011;49320;52.512;13.448;2022-07-23T10:15:39;4.25;;;2.63;;
63218;SDS011;49320;52.512;13.448;2022-07-23T10:18:09;2.80;;;2.13;;
63218;SDS011;49320;52.512;13.448;2022-07-23T10:20:38;4.03;;;2.67;;
63218;SDS011;49320;52.512;13.448;2022-07-23T10:26:19;4.15;;;2.22;;
63218;SDS011;49320;52.512;13.448;2022-07-23T10:31:50;4.18;;;2.40;;
63218;SDS011;49320;52.512;13.448;2022-07-23T10:34:42;3.58;;;2.00;;
63218;SDS011;49320;52.512;13.448;2022-07-23T10:37:37;2.30;;;1.73;;
63218;SDS011;49320;52.512;13.448;2022-07-23T10:42:44;2.85;;;2.03;;
63218;SDS011;49320;52.512;13.448;2022-07-23T10:45:23;2.58;;;1.50;;
63218;SDS011;49320;52.512;13.448;2022-07-23T10:48:12;2.35;;;1.70;;
63218;SDS011;49320;52.512;13.448;2022-07-23T10:50:45;2.97;;;2.30;;
63218;SDS011;49320;52.512;13.448;2022-07-23T10:59:23;4.40;;;1.85;;
63218;SDS011;49320;52.512;13.448;2022-07-23T11:01:52;3.47;;;1.65;;
63218;SDS011;49320;52.512;13.448;2022-07-23T11:04:19;5.40;;;2.15;;
63218;SDS011;49320;52.512;13.448;2022-07-23T11:07:16;3.83;;;2.08;;
63218;SDS011;49320;52.512;13.448;2022-07-23T11:09:47;2.58;;;1.80;;
63218;SDS011;49320;52.512;13.448;2022-07-23T11:15:02;1.70;;;1.50;;
63218;SDS011;49320;52.512;13.448;2022-07-23T11:17:33;2.17;;;1.70;;
63218;SDS011;49320;52.512;13.448;2022-07-23T11:20:23;4.03;;;1.77;;
63218;SDS011;49320;52.512;13.448;2022-07-23T11:22:51;2.30;;;1.65;;
63218;SDS011;49320;52.512;13.448;2022-07-23T11:27:51;2.63;;;1.88;;
63218;SDS011;49320;52.512;13.448;2022-07-23T11:32:55;2.15;;;1.52;;
63218;SDS011;49320;52.512;13.448;2022-07-23T11:35:45;3.58;;;1.90;;
63218;SDS011;49320;52.512;13.448;2022-07-23T11:38:18;4.22;;;2.10;;
63218;SDS011;49320;52.512;13.448;2022-07-23T11:40:50;3.08;;;2.13;;
63218;SDS011;49320;52.512;13.448;2022-07-23T11:45:49;4.60;;;2.13;;
63218;SDS011;49320;52.512;13.448;2022-07-23T11:48:23;4.07;;;2.08;;
63218;SDS011;49320;52.512;13.448;2022-07-23T11:50:56;2.92;;;2.00;;
63218;SDS011;49320;52.512;13.448;2022-07-23T11:53:24;3.42;;;1.80;;
63218;SDS011;49320;52.512;13.448;2022-07-23T11:55:54;2.67;;;2.20;;
63218;SDS011;49320;52.512;13.448;2022-07-23T11:58:38;3.28;;;2.10;;
63218;SDS011;49320;52.512;13.448;2022-07-23T12:01:19;3.40;;;2.10;;
63218;SDS011;49320;52.512;13.448;2022-07-23T12:03:50;2.80;;;1.80;;
63218;SDS011;49320;52.512;13.448;2022-07-23T12:06:17;2.80;;;2.03;;
63218;SDS011;49320;52.512;13.448;2022-07-23T12:08:45;3.25;;;1.90;;
63218;SDS011;49320;52.512;13.448;2022-07-23T12:11:12;2.63;;;1.88;;
63218;SDS011;49320;52.512;13.448;2022-07-23T12:13:39;2.40;;;2.20;;
63218;SDS011;49320;52.512;13.448;2022-07-23T12:16:06;3.38;;;1.92;;
63218;SDS011;49320;52.512;13.448;2022-07-23T12:18:35;2.30;;;1.73;;
63218;SDS011;49320;52.512;13.448;2022-07-23T12:21:03;5.03;;;2.47;;
63218;SDS011;49320;52.512;13.448;2022-07-23T12:23:33;2.15;;;1.95;;
63218;SDS011;49320;52.512;13.448;2022-07-23T12:26:03;2.85;;;2.08;;
63218;SDS011;49320;52.512;13.448;2022-07-23T12:28:31;2.75;;;2.20;;
63218;SDS011;49320;52.512;13.448;2022-07-23T12:31:00;3.00;;;1.98;;
63218;SDS011;49320;52.512;13.448;2022-07-23T12:34:00;2.90;;;2.10;;
63218;SDS011;49320;52.512;13.448;2022-07-23T12:36:25;4.20;;;2.25;;
63218;SDS011;49320;52.512;13.448;2022-07-23T12:39:07;2.75;;;2.13;;
63218;SDS011;49320;52.512;13.448;2022-07-23T12:41:52;3.10;;;2.08;;
63218;SDS011;49320;52.512;13.448;2022-07-23T12:44:20;5.05;;;1.83;;
63218;SDS011;49320;52.512;13.448;2022-07-23T12:46:50;2.30;;;1.90;;
63218;SDS011;49320;52.512;13.448;2022-07-23T12:49:25;2.08;;;1.70;;
63218;SDS011;49320;52.512;13.448;2022-07-23T12:51:55;2.97;;;2.05;;
63218;SDS011;49320;52.512;13.448;2022-07-23T12:54:29;2.85;;;2.00;;
63218;SDS011;49320;52.512;13.448;2022-07-23T12:56:56;2.55;;;1.83;;
63218;SDS011;49320;52.512;13.448;2022-07-23T12:59:24;2.60;;;2.08;;
63218;SDS011;49320;52.512;13.448;2022-07-23T13:04:25;3.08;;;2.50;;
63218;SDS011;49320;52.512;13.448;2022-07-23T13:06:54;3.53;;;2.20;;
63218;SDS011;49320;52.512;13.448;2022-07-23T13:09:31;3.10;;;2.38;;
63218;SDS011;49320;52.512;13.448;2022-07-23T13:12:07;2.42;;;2.17;;
63218;SDS011;49320;52.512;13.448;2022-07-23T13:14:37;3.20;;;2.25;;
63218;SDS011;49320;52.512;13.448;2022-07-23T13:17:04;2.67;;;2.05;;
63218;SDS011;49320;52.512;13.448;2022-07-23T13:19:32;3.88;;;2.72;;
63218;SDS011;49320;52.512;13.448;2022-07-23T13:22:00;2.47;;;2.25;;
63218;SDS011;49320;52.512;13.448;2022-07-23T13:24:34;3.15;;;2.15;;
63218;SDS011;49320;52.512;13.448;2022-07-23T13:27:04;2.92;;;2.22;;
63218;SDS011;49320;52.512;13.448;2022-07-23T13:29:38;2.45;;;1.80;;
63218;SDS011;49320;52.512;13.448;2022-07-23T13:32:05;3.58;;;2.13;;
63218;SDS011;49320;52.512;13.448;2022-07-23T13:37:07;3.22;;;2.13;;
63218;SDS011;49320;52.512;13.448;2022-07-23T13:39:33;2.88;;;2.15;;
63218;SDS011;49320;52.512;13.448;2022-07-23T13:42:04;2.83;;;2.22;;
63218;SDS011;49320;52.512;13.448;2022-07-23T13:44:33;3.88;;;2.15;;
63218;SDS011;49320;52.512;13.448;2022-07-23T13:47:01;4.20;;;2.15;;
63218;SDS011;49320;52.512;13.448;2022-07-23T13:49:29;3.10;;;2.20;;
63218;SDS011;49320;52.512;13.448;2022-07-23T13:51:56;2.60;;;1.90;;
63218;SDS011;49320;52.512;13.448;2022-07-23T13:54:24;4.10;;;2.35;;
63218;SDS011;49320;52.512;13.448;2022-07-23T13:56:53;4.30;;;2.10;;
63218;SDS011;49320;52.512;13.448;2022-07-23T13:59:20;2.83;;;1.92;;
63218;SDS011;49320;52.512;13.448;2022-07-23T14:01:52;2.33;;;1.88;;
63218;SDS011;49320;52.512;13.448;2022-07-23T14:04:39;3.03;;;1.95;;
63218;SDS011;49320;52.512;13.448;2022-07-23T14:07:07;1.90;;;1.70;;
63218;SDS011;49320;52.512;13.448;2022-07-23T14:09:34;2.05;;;1.85;;
63218;SDS011;49320;52.512;13.448;2022-07-23T14:12:03;2.00;;;1.80;;
63218;SDS011;49320;52.512;13.448;2022-07-23T14:14:31;2.47;;;1.67;;
63218;SDS011;49320;52.512;13.448;2022-07-23T14:17:02;1.75;;;1.65;;
63218;SDS011;49320;52.512;13.448;2022-07-23T14:19:32;1.92;;;1.77;;
63218;SDS011;49320;52.512;13.448;2022-07-23T14:22:00;2.55;;;1.65;;
63218;SDS011;49320;52.512;13.448;2022-07-23T14:24:27;2.60;;;2.00;;
63218;SDS011;49320;52.512;13.448;2022-07-23T14:26:59;2.88;;;1.80;;
63218;SDS011;49320;52.512;13.448;2022-07-23T14:29:28;2.05;;;1.60;;
63218;SDS011;49320;52.512;13.448;2022-07-23T14:31:55;2.13;;;1.70;;
63218;SDS011;49320;52.512;13.448;2022-07-23T14:34:23;2.60;;;1.90;;
63218;SDS011;49320;52.512;13.448;2022-07-23T14:36:53;2.92;;;1.67;;
63218;SDS011;49320;52.512;13.448;2022-07-23T14:39:20;2.50;;;1.52;;
63218;SDS011;49320;52.512;13.448;2022-07-23T14:41:47;2.20;;;1.67;;
63218;SDS011;49320;52.512;13.448;2022-07-23T14:44:14;3.50;;;1.50;;
63218;SDS011;49320;52.512;13.448;2022-07-23T14:46:42;2.83;;;1.63;;
63218;SDS011;49320;52.512;13.448;2022-07-23T14:49:09;2.15;;;1.50;;
63218;SDS011;49320;52.512;13.448;2022-07-23T14:51:36;2.35;;;1.38;;
63218;SDS011;49320;52.512;13.448;2022-07-23T14:54:03;2.55;;;1.70;;
63218;SDS011;49320;52.512;13.448;2022-07-23T14:56:31;2.15;;;1.60;;
63218;SDS011;49320;52.512;13.448;2022-07-23T14:58:59;1.40;;;1.30;;
63218;SDS011;49320;52.512;13.448;2022-07-23T15:01:27;2.65;;;1.63;;
63218;SDS011;49320;52.512;13.448;2022-07-23T15:03:54;2.58;;;1.42;;
63218;SDS011;49320;52.512;13.448;2022-07-23T15:06:24;1.50;;;1.40;;
63218;SDS011;49320;52.512;13.448;2022-07-23T15:08:52;1.45;;;1.20;;
63218;SDS011;49320;52.512;13.448;2022-07-23T15:11:19;2.05;;;1.30;;
63218;SDS011;49320;52.512;13.448;2022-07-23T15:13:46;1.83;;;1.25;;
63218;SDS011;49320;52.512;13.448;2022-07-23T15:16:14;2.58;;;1.60;;
63218;SDS011;49320;52.512;13.448;2022-07-23T15:18:41;1.85;;;1.20;;
63218;SDS011;49320;52.512;13.448;2022-07-23T15:21:08;1.50;;;1.13;;
63218;SDS011;49320;52.512;13.448;2022-07-23T15:23:36;1.52;;;1.20;;
63218;SDS011;49320;52.512;13.448;2022-07-23T15:26:06;2.67;;;1.40;;
63218;SDS011;49320;52.512;13.448;2022-07-23T15:28:34;1.13;;;1.02;;